PWSweather.com
Personal Weather Stations
Station Observations
HESKRFRR38
Schwerin, Germany, Klein RogahnDE 19073

Schwerin, GermanyKlein RogahnDE 19073

Lat: 53.6059537, Lon: 11.3412162

Elevation: 167.3226

Station Type: VantagePro2

Latest ConditionsUpdated 2:10:00 AM GMT+01:01 Monday, Dec 18, 2017
Currently Today's Max Today's Min Today's Average
Temperature 31.3°F-0.4°C 31.3°F-0.4°C 28.8°F-1.8°C 30.1°F-1.1°C
Dew Point 30.0°F-1.1°C 30.0°F-1.1°C 27.3°F-2.6°C 28.7°F-1.8°C
Winds 4.9 mph SSE7.9 kmh SSE 5.1 mph SSE8.2 kmh SSE - 4.2 mph 6.8 kmh
Wind Gusts 9.0 mph14.5 kmh 9.0 mph14.5 kmh - -
Humidity 95% 95% 94% 94%
Pressure 30.09 in1019.0 mb 30.11 in1019.6 mb 30.09 in1019.0 mb -
Hour Temp Dew Point Humidity Winds Wind Gusts Pressure Precip Precip Rate Daily Precip Total
02:10 AM 31.3°F-0.4°C 30.0°F-1.1°C 95% 4.9 mph SSE7.9 kmh SSE 9.0 mph14.5 kmh 30.09 in1019.0 mb 0.00 in0.0 mm 0.00 in0.0 mm 0.00 in0.0 mm
02:05 AM 31.2°F-0.4°C 29.9°F-1.2°C 95% 5.1 mph SSE8.2 kmh SSE 9.0 mph14.5 kmh 30.09 in1019.0 mb 0.00 in0.0 mm 0.00 in0.0 mm 0.00 in0.0 mm
02:00 AM 31.2°F-0.4°C 29.9°F-1.2°C 95% 4.3 mph SSE6.9 kmh SSE 8.0 mph12.9 kmh 30.09 in1019.0 mb 0.00 in0.0 mm 0.00 in0.0 mm 0.00 in0.0 mm
01:55 AM 31.1°F-0.5°C 29.8°F-1.2°C 95% 4.5 mph SSE7.2 kmh SSE 9.0 mph14.5 kmh 30.10 in1019.3 mb 0.00 in0.0 mm 0.00 in0.0 mm 0.00 in0.0 mm
01:50 AM 31.0°F-0.6°C 29.7°F-1.3°C 95% 4.3 mph SSE6.9 kmh SSE 9.0 mph14.5 kmh 30.10 in1019.3 mb 0.00 in0.0 mm 0.00 in0.0 mm 0.00 in0.0 mm
01:45 AM 31.0°F-0.6°C 29.7°F-1.3°C 95% 5.0 mph SSE8.0 kmh SSE 9.0 mph14.5 kmh 30.10 in1019.3 mb 0.00 in0.0 mm 0.00 in0.0 mm 0.00 in0.0 mm
01:40 AM 30.9°F-0.6°C 29.6°F-1.3°C 95% 4.8 mph S7.7 kmh S 9.0 mph14.5 kmh 30.10 in1019.3 mb 0.00 in0.0 mm 0.00 in0.0 mm 0.00 in0.0 mm
01:35 AM 30.8°F-0.7°C 29.5°F-1.4°C 95% 4.0 mph S6.4 kmh S 7.0 mph11.3 kmh 30.10 in1019.3 mb 0.00 in0.0 mm 0.00 in0.0 mm 0.00 in0.0 mm
01:30 AM 30.7°F-0.7°C 29.2°F-1.6°C 94% 3.9 mph S6.3 kmh S 7.0 mph11.3 kmh 30.10 in1019.3 mb 0.00 in0.0 mm 0.00 in0.0 mm 0.00 in0.0 mm
01:25 AM 30.6°F-0.8°C 29.1°F-1.6°C 94% 3.9 mph S6.3 kmh S 7.0 mph11.3 kmh 30.10 in1019.3 mb 0.00 in0.0 mm 0.00 in0.0 mm 0.00 in0.0 mm
01:20 AM 30.6°F-0.8°C 29.1°F-1.6°C 94% 4.1 mph S6.6 kmh S 7.0 mph11.3 kmh 30.10 in1019.3 mb 0.00 in0.0 mm 0.00 in0.0 mm 0.00 in0.0 mm
01:15 AM 30.4°F-0.9°C 28.9°F-1.7°C 94% 4.1 mph S6.6 kmh S 9.0 mph14.5 kmh 30.10 in1019.3 mb 0.00 in0.0 mm 0.00 in0.0 mm 0.00 in0.0 mm
01:10 AM 30.4°F-0.9°C 28.9°F-1.7°C 94% 4.5 mph SSE7.2 kmh SSE 9.0 mph14.5 kmh 30.10 in1019.3 mb 0.00 in0.0 mm 0.00 in0.0 mm 0.00 in0.0 mm
01:05 AM 30.3°F-0.9°C 28.8°F-1.8°C 94% 4.6 mph SSE7.4 kmh SSE 9.0 mph14.5 kmh 30.09 in1019.0 mb 0.00 in0.0 mm 0.00 in0.0 mm 0.00 in0.0 mm
01:00 AM 30.2°F-1.0°C 28.9°F-1.7°C 95% 4.2 mph SSE6.8 kmh SSE 8.0 mph12.9 kmh 30.10 in1019.3 mb 0.00 in0.0 mm 0.00 in0.0 mm 0.00 in0.0 mm
12:55 AM 30.1°F-1.1°C 28.8°F-1.8°C 95% 4.0 mph SSE6.4 kmh SSE 8.0 mph12.9 kmh 30.10 in1019.3 mb 0.00 in0.0 mm 0.00 in0.0 mm 0.00 in0.0 mm
12:50 AM 29.8°F-1.2°C 28.3°F-2.1°C 94% 3.9 mph SSE6.3 kmh SSE 7.0 mph11.3 kmh 30.10 in1019.3 mb 0.00 in0.0 mm 0.00 in0.0 mm 0.00 in0.0 mm
12:45 AM 29.7°F-1.3°C 28.2°F-2.1°C 94% 3.8 mph SSE6.1 kmh SSE 6.0 mph9.7 kmh 30.10 in1019.3 mb 0.00 in0.0 mm 0.00 in0.0 mm 0.00 in0.0 mm
12:40 AM 29.6°F-1.3°C 28.1°F-2.2°C 94% 3.6 mph SSE5.8 kmh SSE 8.0 mph12.9 kmh 30.10 in1019.3 mb 0.00 in0.0 mm 0.00 in0.0 mm 0.00 in0.0 mm
12:35 AM 29.4°F-1.4°C 27.9°F-2.3°C 94% 5.1 mph SSE8.2 kmh SSE 8.0 mph12.9 kmh 30.11 in1019.6 mb 0.00 in0.0 mm 0.00 in0.0 mm 0.00 in0.0 mm
12:30 AM 29.2°F-1.6°C 27.7°F-2.4°C 94% 3.9 mph SSE6.3 kmh SSE 7.0 mph11.3 kmh 30.11 in1019.6 mb 0.00 in0.0 mm 0.00 in0.0 mm 0.00 in0.0 mm
12:25 AM 29.1°F-1.6°C 27.6°F-2.4°C 94% 5.0 mph SSE8.0 kmh SSE 7.0 mph11.3 kmh 30.11 in1019.6 mb 0.00 in0.0 mm 0.00 in0.0 mm 0.00 in0.0 mm
12:20 AM 29.0°F-1.7°C 27.5°F-2.5°C 94% 3.5 mph SSE5.6 kmh SSE 6.0 mph9.7 kmh 30.11 in1019.6 mb 0.00 in0.0 mm 0.00 in0.0 mm 0.00 in0.0 mm
12:15 AM 29.0°F-1.7°C 27.5°F-2.5°C 94% 3.7 mph SSE6.0 kmh SSE 7.0 mph11.3 kmh 30.11 in1019.6 mb 0.00 in0.0 mm 0.00 in0.0 mm 0.00 in0.0 mm
12:10 AM 28.8°F-1.8°C 27.3°F-2.6°C 94% 4.2 mph SSE6.8 kmh SSE 7.0 mph11.3 kmh 30.11 in1019.6 mb 0.00 in0.0 mm 0.00 in0.0 mm 0.00 in0.0 mm
12:05 AM 28.8°F-1.8°C 27.3°F-2.6°C 94% 3.1 mph S5.0 kmh S 6.0 mph9.7 kmh 30.11 in1019.6 mb 0.00 in0.0 mm 0.00 in0.0 mm 0.00 in0.0 mm
12:00 AM 28.8°F-1.8°C 27.3°F-2.6°C 94% 3.8 mph SSE6.1 kmh SSE 6.0 mph9.7 kmh 30.11 in1019.6 mb 0.00 in0.0 mm 0.00 in0.0 mm 0.01 in0.3 mm